Time;durP1;ratioP1;P1;durP2;ratioP2;P2;SDS_P1;SDS_P2;PMS_P1;PMS_P2;Temp;Humidity;BMP_temperature;BMP_pressure;BME280_temperature;BME280_humidity;BME280_pressure;Samples;Min_cycle;Max_cycle;Signal;HPM_P1;HPM_P2
2023/03/04 00:01:44;;;;;;;52.90;33.50;;;;;;;9.88;79.15;100872.75;5011970;28;20100;-80
2023/03/04 00:04:10;;;;;;;50.58;32.92;;;;;;;9.93;79.31;100868.72;5012300;28;20026;-80
2023/03/04 00:06:35;;;;;;;51.17;31.80;;;;;;;9.90;79.00;100865.41;5012365;28;20133;-80
2023/03/04 00:09:03;;;;;;;52.47;33.25;;;;;;;9.92;79.08;100867.00;4998237;28;20031;-80
2023/03/04 00:11:29;;;;;;;52.15;33.03;;;;;;;9.96;79.03;100871.19;4974747;28;20030;-80
2023/03/04 00:13:55;;;;;;;48.92;32.13;;;;;;;9.93;78.69;100878.63;4991974;28;20030;-81
2023/03/04 00:16:21;;;;;;;49.35;32.00;;;;;;;9.92;78.99;100864.31;4991686;28;20121;-80
2023/03/04 00:18:46;;;;;;;50.88;33.30;;;;;;;9.98;78.98;100874.59;5002038;28;20051;-81
2023/03/04 00:21:12;;;;;;;52.60;33.92;;;;;;;9.98;78.80;100879.13;5011505;28;20025;-79
2023/03/04 00:23:40;;;;;;;56.25;34.05;;;;;;;10.01;78.68;100878.88;5010734;28;20033;-79
2023/03/04 00:26:06;;;;;;;56.28;37.33;;;;;;;9.96;78.48;100864.94;5011271;28;20037;-79
2023/03/04 00:28:32;;;;;;;53.55;34.13;;;;;;;9.99;78.29;100875.47;5004707;28;20034;-79
2023/03/04 00:30:57;;;;;;;54.22;35.22;;;;;;;9.98;78.18;100873.75;4997222;28;20083;-81
2023/03/04 00:33:23;;;;;;;54.63;36.83;;;;;;;9.85;78.35;100887.22;4995798;28;20121;-80
2023/03/04 00:35:48;;;;;;;61.70;37.72;;;;;;;9.74;78.68;100877.28;4991768;28;20508;-79
2023/03/04 00:38:14;;;;;;;59.75;38.63;;;;;;;9.68;78.74;100893.88;4996117;28;20022;-79
2023/03/04 00:40:39;;;;;;;58.97;38.03;;;;;;;9.73;79.41;100885.44;5011166;28;20036;-79
2023/03/04 00:43:04;;;;;;;56.60;37.85;;;;;;;9.73;79.45;100885.44;5011054;28;20567;-80
2023/03/04 00:45:30;;;;;;;62.55;39.05;;;;;;;9.62;79.40;100864.78;5011209;28;20036;-79
2023/03/04 00:47:55;;;;;;;59.70;37.10;;;;;;;9.61;79.43;100881.84;5009491;28;20631;-79
2023/03/04 00:50:21;;;;;;;62.35;38.60;;;;;;;9.56;79.74;100881.34;4991585;28;20057;-79
2023/03/04 00:52:46;;;;;;;64.38;37.03;;;;;;;9.55;79.89;100879.63;4991369;28;20026;-80
2023/03/04 00:55:12;;;;;;;62.33;38.55;;;;;;;9.63;80.52;100869.16;4974030;28;20034;-79
2023/03/04 00:57:37;;;;;;;59.30;38.13;;;;;;;9.69;80.57;100870.56;4991538;28;20064;-80
2023/03/04 01:00:03;;;;;;;62.88;38.15;;;;;;;9.68;80.65;100867.00;5009409;28;20054;-80
2023/03/04 01:02:29;;;;;;;63.92;40.20;;;;;;;9.72;80.33;100868.47;5010640;28;20022;-81
2023/03/04 01:04:54;;;;;;;64.07;39.22;;;;;;;9.76;80.51;100869.09;5010885;28;20052;-81
2023/03/04 01:07:20;;;;;;;51.78;35.05;;;;;;;9.71;80.64;100856.03;5010972;28;20029;-80
2023/03/04 01:09:45;;;;;;;60.70;38.58;;;;;;;9.67;80.23;100867.97;5010254;28;20029;-79
2023/03/04 01:12:11;;;;;;;50.25;35.30;;;;;;;9.72;80.33;100862.28;5010606;28;20044;-80
2023/03/04 01:14:36;;;;;;;57.45;34.90;;;;;;;9.70;80.19;100859.69;5010814;28;20103;-81
2023/03/04 01:17:01;;;;;;;53.83;34.28;;;;;;;9.62;80.22;100850.47;5010795;28;20034;-79
2023/03/04 01:19:27;;;;;;;54.60;35.33;;;;;;;9.72;80.21;100856.91;4999037;28;20034;-78
2023/03/04 01:21:52;;;;;;;48.17;33.33;;;;;;;9.65;79.58;100851.13;4991477;28;20390;-80
2023/03/04 01:24:18;;;;;;;46.17;31.45;;;;;;;9.64;79.73;100849.41;4991606;28;20030;-80
2023/03/04 01:26:43;;;;;;;49.53;31.23;;;;;;;9.62;79.13;100845.97;4990947;28;20136;-79
2023/03/04 01:29:09;;;;;;;46.28;29.25;;;;;;;9.59;79.29;100853.41;4996790;28;20053;-79
2023/03/04 01:31:34;;;;;;;47.10;30.45;;;;;;;9.56;79.35;100857.16;4996633;28;20045;-80
2023/03/04 01:34:00;;;;;;;43.63;29.70;;;;;;;9.59;79.71;100856.94;4992208;28;20056;-79
2023/03/04 01:36:25;;;;;;;48.17;30.08;;;;;;;9.62;79.41;100855.84;4990235;28;20116;-79
2023/03/04 01:38:51;;;;;;;44.33;30.42;;;;;;;9.62;79.27;100855.84;4997046;28;20057;-80
2023/03/04 01:41:21;;;;;;;42.15;26.83;;;;;;;9.69;79.27;100836.47;5010570;28;20115;-79
2023/03/04 01:43:46;;;;;;;44.80;29.35;;;;;;;9.71;79.20;100829.19;4992605;28;20486;-81
2023/03/04 01:46:13;;;;;;;45.35;29.88;;;;;;;9.80;78.80;100838.38;5010519;28;20026;-81
2023/03/04 01:48:40;;;;;;;41.33;27.63;;;;;;;9.78;78.44;100838.47;5004875;28;20029;-80
2023/03/04 01:51:11;;;;;;;45.88;29.55;;;;;;;9.82;78.34;100839.97;4990509;28;20184;-81
2023/03/04 01:53:37;;;;;;;42.17;28.03;;;;;;;9.87;78.66;100828.03;5010220;28;20036;-80
2023/03/04 01:56:14;;;;;;;38.97;26.30;;;;;;;9.95;78.22;100831.84;4992150;28;20112;-80
2023/03/04 01:58:39;;;;;;;42.40;28.27;;;;;;;9.99;78.04;100827.09;5009972;28;20126;-80
2023/03/04 02:01:04;;;;;;;44.00;28.17;;;;;;;9.87;77.68;100807.41;5010116;28;20101;-80
2023/03/04 02:03:30;;;;;;;43.85;29.08;;;;;;;10.04;77.78;100825.78;4991487;28;20033;-80
2023/03/04 02:05:55;;;;;;;40.20;26.98;;;;;;;10.04;77.58;100824.91;4990736;28;20739;-80
2023/03/04 02:08:23;;;;;;;47.42;28.50;;;;;;;10.09;77.75;100822.75;4989997;28;20514;-80
2023/03/04 02:10:50;;;;;;;42.85;27.77;;;;;;;10.08;78.04;100821.03;4990430;28;20037;-80
2023/03/04 02:13:15;;;;;;;49.30;31.25;;;;;;;10.11;77.30;100820.78;5006126;28;20056;-80
2023/03/04 02:15:43;;;;;;;46.53;30.17;;;;;;;10.08;77.64;100821.03;5009922;28;20088;-81
2023/03/04 02:18:16;;;;;;;46.17;31.35;;;;;;;10.16;77.42;100824.88;5010333;28;20065;-79
2023/03/04 02:21:03;;;;;;;50.08;30.92;;;;;;;10.18;77.46;100832.84;5010541;28;20040;-81
2023/03/04 02:23:42;;;;;;;43.83;30.42;;;;;;;10.25;77.51;100826.00;5006842;28;20049;-79
2023/03/04 02:26:11;;;;;;;45.83;29.33;;;;;;;10.26;77.41;100822.34;5011399;28;20302;-82
2023/03/04 02:28:36;;;;;;;45.60;29.90;;;;;;;10.27;76.99;100819.50;5004915;28;20026;-82
2023/03/04 02:31:02;;;;;;;52.10;32.03;;;;;;;10.31;76.95;100825.53;4996459;28;20045;-79
2023/03/04 02:33:28;;;;;;;50.78;31.60;;;;;;;10.30;76.50;100821.97;5007086;28;20026;-79
2023/03/04 02:35:53;;;;;;;47.97;30.10;;;;;;;10.25;76.56;100818.78;5010086;28;20589;-80
2023/03/04 02:38:19;;;;;;;46.95;30.98;;;;;;;10.32;76.86;100819.19;5009656;28;20022;-79
2023/03/04 02:40:49;;;;;;;44.00;30.85;;;;;;;10.29;75.92;100817.59;4992473;28;20412;-80
2023/03/04 02:43:15;;;;;;;46.47;30.95;;;;;;;10.32;75.99;100829.94;4994260;28;20397;-79
2023/03/04 02:45:49;;;;;;;46.90;30.23;;;;;;;10.23;75.66;100822.56;4990044;28;20161;-81
2023/03/04 02:48:18;;;;;;;50.83;31.55;;;;;;;10.22;75.88;100820.84;4992826;28;20035;-80
2023/03/04 02:50:47;;;;;;;43.45;30.10;;;;;;;10.15;75.90;100819.63;4993532;28;20116;-81
2023/03/04 02:53:14;;;;;;;49.60;32.33;;;;;;;10.28;76.14;100836.50;5008165;28;20481;-80
2023/03/04 02:55:41;;;;;;;52.17;31.77;;;;;;;10.22;76.17;100832.47;5012862;28;20561;-80
2023/03/04 02:58:06;;;;;;;49.55;31.25;;;;;;;10.29;76.58;100835.53;5013612;28;20034;-80
2023/03/04 03:00:32;;;;;;;46.00;29.70;;;;;;;10.30;76.23;100831.91;5013180;28;20053;-80
2023/03/04 03:02:57;;;;;;;63.05;31.02;;;;;;;10.30;75.80;100845.34;5001781;28;20470;-80
2023/03/04 03:05:28;;;;;;;51.58;31.65;;;;;;;10.27;75.47;100837.50;4994514;28;20038;-81
2023/03/04 03:07:54;;;;;;;50.35;30.67;;;;;;;10.34;75.51;100844.09;4978172;28;20453;-79
2023/03/04 03:10:20;;;;;;;45.55;29.42;;;;;;;10.32;75.14;100835.31;4969358;28;20046;-79
2023/03/04 03:12:46;;;;;;;51.10;31.15;;;;;;;10.26;75.15;100839.34;5015709;28;20069;-79
2023/03/04 03:15:11;;;;;;;49.88;32.42;;;;;;;10.27;75.75;100842.88;5016058;28;20026;-79
2023/03/04 03:17:37;;;;;;;51.20;32.25;;;;;;;10.16;75.54;100845.50;5001945;28;20030;-80
2023/03/04 03:20:03;;;;;;;50.60;31.58;;;;;;;10.06;75.47;100839.13;4994675;28;20471;-80
2023/03/04 03:22:29;;;;;;;52.00;32.75;;;;;;;10.13;76.14;100840.34;5003033;28;20033;-80
2023/03/04 03:24:54;;;;;;;48.13;31.10;;;;;;;10.12;75.90;100841.34;5009739;28;20035;-79
2023/03/04 03:27:20;;;;;;;50.83;32.03;;;;;;;10.13;76.26;100856.47;4998302;28;20030;-79
2023/03/04 03:29:45;;;;;;;46.92;31.20;;;;;;;10.14;76.77;100855.53;4998119;28;20026;-81
2023/03/04 03:32:11;;;;;;;49.55;31.75;;;;;;;10.16;76.61;100845.50;4993982;28;20034;-81
2023/03/04 03:34:36;;;;;;;46.40;31.65;;;;;;;10.13;76.35;100834.97;4992611;28;20032;-81
2023/03/04 03:37:01;;;;;;;50.95;33.65;;;;;;;9.99;76.44;100849.47;4958958;28;20038;-81
2023/03/04 03:39:27;;;;;;;56.00;33.65;;;;;;;10.10;76.67;100846.81;4992836;28;20037;-80
2023/03/04 03:41:52;;;;;;;49.08;32.97;;;;;;;10.12;76.75;100844.03;4992618;28;20030;-82
2023/03/04 03:44:18;;;;;;;48.83;31.58;;;;;;;10.10;77.13;100840.56;4992449;28;20022;-80
2023/03/04 03:46:43;;;;;;;51.00;33.08;;;;;;;10.14;77.40;100831.34;4992613;28;20034;-80
2023/03/04 03:49:09;;;;;;;47.30;30.35;;;;;;;10.20;76.95;100841.63;4992724;28;20048;-81
2023/03/04 03:51:35;;;;;;;48.33;31.35;;;;;;;10.24;76.95;100840.44;4992634;28;20050;-80
2023/03/04 03:54:01;;;;;;;52.35;32.67;;;;;;;10.23;76.67;100830.63;5007286;28;20026;-80
2023/03/04 03:56:26;;;;;;;51.10;33.72;;;;;;;10.31;76.36;100838.97;5002492;28;20125;-81
2023/03/04 03:58:51;;;;;;;52.08;32.08;;;;;;;10.29;76.27;100835.53;4996190;28;20065;-81
2023/03/04 04:01:17;;;;;;;53.33;31.27;;;;;;;10.33;76.20;100842.41;5011992;28;20053;-81
2023/03/04 04:03:42;;;;;;;51.13;32.17;;;;;;;10.33;75.98;100837.91;5011596;28;20053;-81
2023/03/04 04:06:08;;;;;;;50.40;31.90;;;;;;;10.39;76.40;100841.94;5012017;28;20080;-80
2023/03/04 04:08:33;;;;;;;53.42;31.73;;;;;;;10.37;76.45;100841.19;5011911;28;20360;-79
2023/03/04 04:10:59;;;;;;;47.25;30.27;;;;;;;10.36;76.02;100842.16;5012015;28;20037;-80
2023/03/04 04:13:24;;;;;;;49.10;30.23;;;;;;;10.27;76.22;100835.66;5011336;28;20029;-80
2023/03/04 04:15:52;;;;;;;49.45;31.85;;;;;;;10.36;75.83;100852.94;5011633;28;20030;-80
2023/03/04 04:18:18;;;;;;;51.42;32.10;;;;;;;10.13;76.34;100845.72;5011634;28;20061;-80
2023/03/04 04:20:43;;;;;;;50.60;30.67;;;;;;;10.25;76.72;100858.25;5011810;28;20065;-81
2023/03/04 04:23:10;;;;;;;50.10;32.70;;;;;;;10.19;76.59;100847.97;5011215;28;20026;-80
2023/03/04 04:25:35;;;;;;;48.50;31.83;;;;;;;10.21;76.55;100857.63;5015091;28;20478;-78
2023/03/04 04:28:01;;;;;;;49.35;32.50;;;;;;;10.25;76.41;100855.56;5019814;28;20044;-81
2023/03/04 04:30:26;;;;;;;48.25;30.48;;;;;;;10.28;76.50;100858.00;5015700;28;20030;-80
2023/03/04 04:32:53;;;;;;;53.70;32.55;;;;;;;10.24;77.15;100853.88;5010748;28;20247;-79
2023/03/04 04:35:18;;;;;;;48.60;31.50;;;;;;;10.23;77.40;100855.69;5011722;28;20061;-80
2023/03/04 04:37:44;;;;;;;53.38;33.30;;;;;;;10.27;77.04;100861.69;5011203;28;20213;-80
2023/03/04 04:40:10;;;;;;;52.35;32.67;;;;;;;10.33;76.90;100858.53;4950320;29;20054;-79
2023/03/04 04:42:35;;;;;;;50.20;31.80;;;;;;;10.35;76.85;100861.97;4955330;28;20582;-81
2023/03/04 04:45:01;;;;;;;50.22;32.60;;;;;;;10.34;77.26;100854.84;4970039;28;20197;-80
2023/03/04 04:47:26;;;;;;;51.33;33.25;;;;;;;10.28;76.79;100863.38;4985755;28;20077;-80
2023/03/04 04:49:52;;;;;;;53.42;33.63;;;;;;;10.24;76.83;100864.63;4969526;28;20110;-80
2023/03/04 04:52:17;;;;;;;51.35;33.15;;;;;;;10.27;77.16;100875.97;4969151;28;20503;-79
2023/03/04 04:54:42;;;;;;;58.20;36.33;;;;;;;10.14;77.44;100879.72;4969334;28;20046;-80
2023/03/04 04:57:08;;;;;;;56.97;35.97;;;;;;;10.10;77.24;100875.50;4953744;28;20027;-80
2023/03/04 04:59:33;;;;;;;57.15;34.00;;;;;;;10.14;77.71;100888.66;4950112;29;20066;-81
2023/03/04 05:01:59;;;;;;;55.58;36.75;;;;;;;10.03;77.93;100887.72;4950007;28;20063;-80
2023/03/04 05:04:24;;;;;;;58.20;36.67;;;;;;;9.99;78.04;100886.22;4950194;29;20507;-80
2023/03/04 05:06:50;;;;;;;54.92;35.15;;;;;;;9.96;78.44;100903.44;4950164;29;20035;-84
2023/03/04 05:09:15;;;;;;;62.30;37.65;;;;;;;9.92;79.02;100901.06;4950126;28;20432;-83
2023/03/04 05:11:41;;;;;;;64.32;39.20;;;;;;;9.95;79.20;100900.84;4994036;28;20038;-83
2023/03/04 05:14:06;;;;;;;61.38;37.90;;;;;;;9.85;79.27;100903.34;4960556;28;20045;-84
2023/03/04 05:16:33;;;;;;;61.67;37.80;;;;;;;9.80;79.10;100914.44;4993795;28;20072;-83
2023/03/04 05:18:59;;;;;;;57.45;37.40;;;;;;;9.70;79.48;100907.16;5010713;28;20049;-83
2023/03/04 05:21:24;;;;;;;66.95;40.33;;;;;;;9.69;79.72;100916.22;5011910;28;20049;-81
2023/03/04 05:23:49;;;;;;;58.45;38.72;;;;;;;9.64;79.82;100918.34;4995494;28;20030;-82
2023/03/04 05:26:16;;;;;;;61.83;36.95;;;;;;;9.62;80.40;100909.56;5032949;28;20044;-83
2023/03/04 05:28:42;;;;;;;65.10;39.20;;;;;;;9.66;80.56;100916.44;5031307;28;20041;-82
2023/03/04 05:31:08;;;;;;;63.70;38.22;;;;;;;9.51;80.75;100913.00;5011811;28;20026;-85
2023/03/04 05:33:34;;;;;;;60.63;39.00;;;;;;;9.51;80.93;100923.75;5009786;28;20051;-82
2023/03/04 05:35:59;;;;;;;64.35;40.05;;;;;;;9.56;81.02;100926.97;5011044;28;20026;-83
2023/03/04 05:38:24;;;;;;;69.03;39.25;;;;;;;9.53;81.06;100916.47;5011346;28;20030;-82
2023/03/04 05:41:02;;;;;;;56.58;37.05;;;;;;;9.54;81.30;100933.44;5010516;28;20025;-83
2023/03/04 05:43:28;;;;;;;61.67;37.88;;;;;;;9.51;81.51;100918.38;5010932;28;20058;-82
2023/03/04 05:45:54;;;;;;;64.47;35.10;;;;;;;9.56;81.67;100928.81;5010977;28;20033;-83
2023/03/04 05:48:20;;;;;;;58.88;35.55;;;;;;;9.68;81.55;100931.47;5011807;28;20022;-84
2023/03/04 05:50:45;;;;;;;57.05;36.20;;;;;;;9.69;81.05;100938.53;5010359;28;20429;-83
2023/03/04 05:53:11;;;;;;;61.08;36.70;;;;;;;9.68;81.22;100925.22;5010219;28;20069;-84
2023/03/04 05:55:37;;;;;;;58.72;37.22;;;;;;;9.66;81.35;100916.44;5010711;28;20029;-83
2023/03/04 05:58:02;;;;;;;60.85;36.60;;;;;;;9.73;80.62;100918.53;5010716;28;20044;-84
2023/03/04 06:00:28;;;;;;;57.38;36.50;;;;;;;9.83;81.14;100913.34;5009971;28;20070;-85
2023/03/04 06:02:53;;;;;;;54.17;35.30;;;;;;;9.87;80.88;100905.94;5010751;28;20405;-84
2023/03/04 06:05:19;;;;;;;56.92;35.70;;;;;;;10.00;80.92;100925.56;5011275;28;20029;-83
2023/03/04 06:07:45;;;;;;;57.88;35.10;;;;;;;10.04;80.21;100922.50;5012198;28;20030;-83
2023/03/04 06:10:17;;;;;;;62.70;38.13;;;;;;;10.10;80.45;100926.56;5011683;28;20049;-83
2023/03/04 06:12:42;;;;;;;58.47;35.33;;;;;;;10.12;79.78;100924.66;5011706;28;20497;-84
2023/03/04 06:15:11;;;;;;;57.28;35.90;;;;;;;10.04;79.85;100929.72;5015076;28;20261;-84
2023/03/04 06:17:38;;;;;;;55.42;34.70;;;;;;;9.98;79.74;100922.09;5016239;28;20058;-86
2023/03/04 06:20:05;;;;;;;60.53;36.63;;;;;;;9.99;79.04;100918.47;5010731;28;20038;-84
2023/03/04 06:22:31;;;;;;;50.78;33.25;;;;;;;10.04;79.01;100918.97;5012699;28;20124;-82
2023/03/04 06:24:57;;;;;;;54.20;35.33;;;;;;;9.89;79.46;100912.03;5023490;28;20026;-85
2023/03/04 06:27:22;;;;;;;53.22;33.83;;;;;;;10.03;79.13;100919.97;5024276;28;20040;-86
2023/03/04 06:29:48;;;;;;;56.95;32.65;;;;;;;9.98;78.61;100920.28;5007596;28;20052;-82
2023/03/04 06:32:13;;;;;;;55.72;33.65;;;;;;;9.93;78.96;100922.47;5008865;28;20030;-84
2023/03/04 06:34:38;;;;;;;57.38;35.17;;;;;;;9.98;79.38;100927.47;5012636;28;20080;-82
2023/03/04 06:37:04;;;;;;;55.08;36.13;;;;;;;9.92;78.66;100917.19;5009050;28;20084;-87
2023/03/04 06:39:29;;;;;;;58.33;34.60;;;;;;;9.84;79.03;100905.19;5014864;28;20041;-80
2023/03/04 06:41:55;;;;;;;62.78;36.22;;;;;;;9.95;78.89;100903.53;5013150;28;20029;-83
2023/03/04 06:44:20;;;;;;;62.83;37.63;;;;;;;10.01;78.97;100908.44;5013561;28;20100;-81
2023/03/04 06:46:45;;;;;;;68.78;42.20;;;;;;;9.93;78.45;100900.09;5012438;28;20149;-82
2023/03/04 06:49:11;;;;;;;74.35;44.40;;;;;;;9.96;78.82;100902.56;5012375;28;20567;-79
2023/03/04 06:51:36;;;;;;;71.30;44.58;;;;;;;10.08;78.45;100898.97;5013082;28;20144;-83
2023/03/04 06:54:02;;;;;;;81.68;51.22;;;;;;;10.10;78.48;100894.31;5014107;28;20057;-83
2023/03/04 06:56:27;;;;;;;89.82;55.95;;;;;;;10.04;78.72;100889.41;5013423;28;20018;-85
2023/03/04 06:58:53;;;;;;;91.10;55.13;;;;;;;10.12;78.84;100892.41;5011621;28;20557;-81
2023/03/04 07:01:24;;;;;;;92.22;53.85;;;;;;;10.20;78.51;100884.63;5012532;28;20180;-80
2023/03/04 07:03:51;;;;;;;95.05;56.42;;;;;;;10.24;78.48;100886.13;5013455;28;20117;-83
2023/03/04 07:06:19;;;;;;;87.07;53.72;;;;;;;10.36;77.58;100893.25;5013346;28;20057;-82
2023/03/04 07:08:45;;;;;;;84.07;50.25;;;;;;;10.40;77.82;100885.81;5013196;28;20053;-83
2023/03/04 07:11:11;;;;;;;80.05;50.38;;;;;;;10.59;76.83;100886.09;5013479;28;20026;-83
2023/03/04 07:13:39;;;;;;;81.03;46.42;;;;;;;10.57;75.92;100871.91;5013444;28;20030;-83
2023/03/04 07:16:06;;;;;;;78.43;47.58;;;;;;;10.63;75.79;100883.06;5013638;28;20508;-84
2023/03/04 07:18:32;;;;;;;74.65;45.25;;;;;;;10.70;75.89;100873.50;5013537;28;20041;-83
2023/03/04 07:20:57;;;;;;;70.15;43.25;;;;;;;10.87;75.45;100875.75;5015399;28;20030;-81
2023/03/04 07:23:23;;;;;;;61.88;40.08;;;;;;;10.91;74.75;100869.19;5020308;28;20037;-84
2023/03/04 07:25:49;;;;;;;70.45;39.58;;;;;;;10.96;73.50;100873.31;5015721;28;20040;-81
2023/03/04 07:28:15;;;;;;;69.93;41.33;;;;;;;11.01;73.47;100871.13;5019935;28;20105;-80
2023/03/04 07:30:40;;;;;;;67.32;39.25;;;;;;;11.11;73.98;100866.72;5037133;28;20094;-84
2023/03/04 07:33:05;;;;;;;63.30;37.65;;;;;;;11.11;72.39;100866.72;5013113;28;20122;-83
2023/03/04 07:35:31;;;;;;;60.03;37.60;;;;;;;11.18;71.85;100863.41;5020254;28;20025;-82
2023/03/04 07:37:57;;;;;;;72.30;41.15;;;;;;;11.20;72.09;100871.34;5001714;28;20037;-82
2023/03/04 07:40:22;;;;;;;62.67;38.88;;;;;;;11.28;71.76;100860.84;5027510;28;20045;-83
2023/03/04 07:42:49;;;;;;;59.38;37.35;;;;;;;11.28;70.81;100872.44;5016098;28;20029;-82
2023/03/04 07:45:14;;;;;;;65.47;40.17;;;;;;;11.31;70.69;100860.59;5013446;28;20026;-82
2023/03/04 07:47:40;;;;;;;58.60;37.03;;;;;;;11.25;70.16;100875.38;5012652;28;20033;-82
2023/03/04 07:50:06;;;;;;;64.50;37.28;;;;;;;11.13;70.54;100864.78;5012166;28;20503;-82
2023/03/04 07:52:31;;;;;;;60.35;39.50;;;;;;;11.13;71.23;100859.41;5011965;28;20496;-79
2023/03/04 07:54:57;;;;;;;61.00;39.92;;;;;;;11.28;71.17;100859.00;5012244;28;20110;-81
2023/03/04 07:57:22;;;;;;;54.10;35.33;;;;;;;11.42;71.07;100860.59;4978227;28;20120;-82
2023/03/04 07:59:47;;;;;;;54.50;35.72;;;;;;;11.52;70.90;100863.38;5011826;28;20572;-84
2023/03/04 08:02:14;;;;;;;53.40;34.58;;;;;;;11.39;69.73;100861.69;5012307;28;20030;-81
2023/03/04 08:04:39;;;;;;;62.35;36.60;;;;;;;11.39;70.29;100858.13;5011837;28;20030;-84
2023/03/04 08:07:05;;;;;;;62.30;36.60;;;;;;;11.47;69.93;100847.59;5010855;28;20087;-82
2023/03/04 08:09:30;;;;;;;61.47;38.35;;;;;;;11.67;70.48;100854.91;5011707;28;20038;-82
2023/03/04 08:11:56;;;;;;;58.63;38.05;;;;;;;11.68;70.43;100859.28;5011911;28;20036;-83
2023/03/04 08:14:21;;;;;;;67.63;37.85;;;;;;;11.66;70.10;100841.53;5012565;28;20064;-82
2023/03/04 08:16:47;;;;;;;54.55;35.80;;;;;;;11.86;69.32;100849.72;5012245;28;20025;-83
2023/03/04 08:19:12;;;;;;;71.50;42.53;;;;;;;11.77;69.38;100838.88;5017305;28;20033;-81
2023/03/04 08:21:38;;;;;;;63.80;35.35;;;;;;;12.03;68.73;100856.41;5018781;28;20121;-81
2023/03/04 08:24:06;;;;;;;69.15;34.00;;;;;;;11.87;67.72;100843.34;5016595;28;20420;-83
2023/03/04 08:26:40;;;;;;;56.47;33.17;;;;;;;11.85;67.90;100847.16;5012398;28;20029;-84
2023/03/04 08:29:07;;;;;;;61.90;36.05;;;;;;;11.92;67.76;100843.84;4994374;28;20067;-82
2023/03/04 08:31:32;;;;;;;63.88;34.60;;;;;;;12.04;67.81;100857.28;5011546;28;20112;-83
2023/03/04 08:33:58;;;;;;;65.28;37.78;;;;;;;11.77;67.16;100844.25;5011384;28;20118;-81
2023/03/04 08:36:24;;;;;;;59.90;37.03;;;;;;;11.92;67.59;100854.63;5011532;28;20022;-82
2023/03/04 08:38:49;;;;;;;66.55;37.78;;;;;;;11.94;68.65;100841.88;4978061;28;20552;-82
2023/03/04 08:41:15;;;;;;;64.82;39.17;;;;;;;12.00;69.59;100848.59;4994066;28;20417;-83
2023/03/04 08:43:41;;;;;;;63.85;39.50;;;;;;;12.00;69.18;100846.75;5011718;28;20121;-82
2023/03/04 08:46:07;;;;;;;67.93;39.25;;;;;;;12.07;69.83;100847.09;5010686;28;20501;-83
2023/03/04 08:48:33;;;;;;;66.22;40.10;;;;;;;11.98;69.46;100837.94;5011415;28;20026;-84
2023/03/04 08:50:58;;;;;;;66.97;38.97;;;;;;;11.96;68.71;100845.28;5011498;28;20053;-82
2023/03/04 08:53:24;;;;;;;70.00;37.83;;;;;;;11.98;68.58;100847.88;5012293;28;20064;-84
2023/03/04 08:55:51;;;;;;;70.30;38.38;;;;;;;11.94;68.67;100835.63;5014297;28;20076;-82
2023/03/04 08:58:17;;;;;;;70.13;37.28;;;;;;;11.99;68.93;100836.06;5030042;28;20097;-82
2023/03/04 09:00:47;;;;;;;56.63;35.63;;;;;;;12.16;68.70;100845.44;5029895;28;20172;-82
2023/03/04 09:03:14;;;;;;;60.05;34.30;;;;;;;12.21;67.99;100832.44;5026850;28;20026;-82
2023/03/04 09:05:39;;;;;;;61.92;34.53;;;;;;;12.26;66.95;100836.44;5017843;28;20034;-82
2023/03/04 09:08:05;;;;;;;61.65;34.38;;;;;;;12.24;66.35;100834.88;5011619;28;20022;-83
2023/03/04 09:10:31;;;;;;;75.25;35.90;;;;;;;12.18;66.60;100835.38;5012245;28;20030;-82
2023/03/04 09:12:57;;;;;;;63.50;34.78;;;;;;;12.22;67.21;100828.75;5011967;28;20025;-82
2023/03/04 09:15:22;;;;;;;59.58;33.75;;;;;;;12.28;67.07;100822.84;4994659;28;20096;-82
2023/03/04 09:17:48;;;;;;;61.60;34.50;;;;;;;12.25;66.85;100817.72;5021700;28;20026;-82
2023/03/04 09:20:13;;;;;;;55.20;33.90;;;;;;;12.27;67.01;100813.03;5024550;28;20057;-80
2023/03/04 09:22:40;;;;;;;57.97;35.17;;;;;;;12.34;66.40;100819.63;5015515;28;20029;-83
2023/03/04 09:25:06;;;;;;;52.72;34.00;;;;;;;12.54;66.15;100835.78;5012171;28;20034;-82
2023/03/04 09:27:32;;;;;;;57.67;33.88;;;;;;;12.52;65.14;100818.03;5012030;28;20030;-83
2023/03/04 09:29:57;;;;;;;61.00;33.88;;;;;;;12.62;65.14;100827.06;5011635;28;20067;-84
2023/03/04 09:32:23;;;;;;;60.28;36.75;;;;;;;12.62;64.49;100820.78;5011900;28;20034;-82
2023/03/04 09:34:48;;;;;;;56.45;34.13;;;;;;;12.49;64.50;100794.88;5011739;28;20045;-83
2023/03/04 09:37:14;;;;;;;50.72;30.77;;;;;;;12.44;64.84;100797.13;5010896;28;20040;-83
2023/03/04 09:39:39;;;;;;;51.55;30.17;;;;;;;12.62;64.36;100816.25;5010793;28;20022;-83
2023/03/04 09:42:08;;;;;;;56.45;30.90;;;;;;;12.72;63.95;100800.13;5011409;28;20048;-83
2023/03/04 09:44:38;;;;;;;50.58;27.63;;;;;;;12.90;62.77;100804.72;5011041;28;20101;-81
2023/03/04 09:47:16;;;;;;;46.63;26.95;;;;;;;12.91;61.38;100800.19;5011080;28;20048;-83
2023/03/04 09:49:47;;;;;;;46.10;27.35;;;;;;;12.86;62.29;100781.72;5011710;28;20382;-83
2023/03/04 09:52:34;;;;;;;58.03;29.23;;;;;;;12.92;62.64;100780.31;5011984;28;20021;-83
2023/03/04 09:55:13;;;;;;;69.63;28.92;;;;;;;13.05;62.46;100770.16;5011846;28;20021;-83
2023/03/04 09:57:41;;;;;;;48.80;28.55;;;;;;;13.23;63.45;100768.53;5011164;28;20637;-83
2023/03/04 10:00:24;;;;;;;55.60;31.88;;;;;;;13.22;63.08;100763.25;5011640;28;20425;-82
2023/03/04 10:03:09;;;;;;;60.17;31.00;;;;;;;13.15;63.00;100771.03;5011331;28;20025;-82
2023/03/04 10:05:58;;;;;;;61.17;30.95;;;;;;;13.11;63.17;100768.75;5011699;28;20034;-82
2023/03/04 10:09:00;;;;;;;63.58;32.45;;;;;;;13.15;63.31;100771.03;5011449;28;20028;-83
2023/03/04 10:11:34;;;;;;;57.85;30.92;;;;;;;13.12;63.10;100765.09;5011675;28;20111;-83
2023/03/04 10:14:24;;;;;;;47.58;27.27;;;;;;;13.23;62.39;100756.84;5012023;28;20133;-83
2023/03/04 10:17:20;;;;;;;42.65;23.73;;;;;;;13.11;61.30;100757.97;5020731;28;20022;-82
2023/03/04 10:20:02;;;;;;;54.03;25.67;;;;;;;13.09;61.40;100761.66;4980289;28;20046;-82
2023/03/04 10:22:33;;;;;;;39.10;20.95;;;;;;;13.16;61.21;100753.00;4969511;28;20031;-84
2023/03/04 10:25:21;;;;;;;39.67;21.50;;;;;;;13.25;61.18;100753.03;4969441;28;20069;-83
2023/03/04 10:28:03;;;;;;;39.95;21.00;;;;;;;13.28;60.83;100743.78;4969932;28;20027;-83
2023/03/04 10:30:58;;;;;;;40.35;23.00;;;;;;;13.42;60.43;100746.09;4969793;28;20047;-84
2023/03/04 10:33:35;;;;;;;33.08;19.58;;;;;;;13.40;59.85;100738.13;4969936;28;20041;-84
2023/03/04 10:36:22;;;;;;;43.65;20.88;;;;;;;13.47;59.91;100741.13;4972135;28;20470;-85
2023/03/04 10:38:52;;;;;;;41.75;22.40;;;;;;;13.45;60.13;100735.00;4969797;28;20030;-85
2023/03/04 10:41:24;;;;;;;42.60;21.85;;;;;;;13.42;60.29;100719.09;4970835;28;20069;-85
2023/03/04 10:44:17;;;;;;;37.83;20.95;;;;;;;13.56;60.33;100721.34;4968643;28;20046;-84
2023/03/04 10:46:45;;;;;;;34.80;20.35;;;;;;;13.74;60.18;100719.66;4969202;28;20043;-86
2023/03/04 10:49:15;;;;;;;35.40;20.17;;;;;;;13.80;59.41;100705.56;4968508;28;20141;-85
2023/03/04 10:52:29;;;;;;;45.63;20.98;;;;;;;13.84;59.40;100704.28;4969776;28;20042;-84
2023/03/04 10:55:01;;;;;;;33.55;20.98;;;;;;;13.89;59.00;100693.88;4931749;29;20608;-84
2023/03/04 10:57:47;;;;;;;35.47;21.75;;;;;;;13.99;59.04;100692.03;4962334;28;20042;-84
2023/03/04 11:00:24;;;;;;;31.83;20.88;;;;;;;14.11;58.39;100690.00;4971518;28;20651;-84
2023/03/04 11:02:49;;;;;;;43.60;21.88;;;;;;;14.17;58.37;100686.72;4970362;28;20035;-85
2023/03/04 11:05:24;;;;;;;31.30;19.60;;;;;;;14.22;57.84;100678.16;4970415;28;20049;-86
2023/03/04 11:07:54;;;;;;;38.83;21.05;;;;;;;14.36;57.84;100665.03;4973279;28;20023;-85
2023/03/04 11:10:21;;;;;;;20.45;14.20;;;;;;;14.35;56.90;100665.19;4975803;28;20567;-84
2023/03/04 11:12:58;;;;;;;44.05;15.57;;;;;;;14.44;57.24;100661.59;4976338;28;20106;-83
2023/03/04 11:15:26;;;;;;;23.92;14.30;;;;;;;14.44;57.68;100653.47;4987175;28;20070;-85